Terminal Aerodrome Forecast
Issued by NWS Charleston, WV

Current Version | Previous Version | Text Only | Print | Product List | Glossary Off
Versions: 1 2 3 4 5 6 7 8 9 10 11 12 13 14 15 16 17 18 19 20 21 22 23 24

000
FTUS41 KRLX 251700
TAFPKB
TAF
KPKB 251730Z 2518/2618 16004KT P6SM OVC045
     FM252100 VRB03KT 5SM -RA BR OVC045
     FM260000 07004KT 2SM -RASNPL BR OVC030
     FM260400 05004KT 2SM -RASNPL BR OVC010
     FM260700 04004KT 2SM -SN BKN008
     FM261300 35005KT 2SM -SN BR OVC004=

USA.gov is the U.S. government's official web portal to all federal, state and local government web resources and services.